Time;durP1;ratioP1;P1;durP2;ratioP2;P2;SDS_P1;SDS_P2;PMS_P1;PMS_P2;Temp;Humidity;BMP_temperature;BMP_pressure;BME280_temperature;BME280_humidity;BME280_pressure;Samples;Min_cycle;Max_cycle;Signal;HPM_P1;HPM_P2
2024/01/14 00:01:17;;;;;;;13.68;6.53;;;;;;;-7.66;74.00;94633.53;5095365;28;20047;-68
2024/01/14 00:03:43;;;;;;;11.75;6.43;;;;;;;-7.69;74.04;94639.47;5112759;28;20028;-68
2024/01/14 00:06:08;;;;;;;11.77;6.70;;;;;;;-7.58;72.70;94628.34;5112940;28;20032;-68
2024/01/14 00:08:33;;;;;;;14.70;8.38;;;;;;;-7.63;72.62;94643.59;5113000;28;20435;-68
2024/01/14 00:10:59;;;;;;;11.63;7.07;;;;;;;-7.72;72.65;94638.66;5112998;28;20036;-68
2024/01/14 00:13:24;;;;;;;10.45;5.93;;;;;;;-7.66;72.24;94636.91;5112960;28;20027;-67
2024/01/14 00:15:50;;;;;;;12.02;6.45;;;;;;;-7.73;73.75;94647.94;5112930;28;20044;-67
2024/01/14 00:18:15;;;;;;;9.25;6.05;;;;;;;-7.87;73.38;94630.47;5114141;28;20409;-67
2024/01/14 00:20:40;;;;;;;12.52;6.13;;;;;;;-7.73;73.39;94632.78;5095829;28;20051;-67
2024/01/14 00:23:06;;;;;;;12.93;6.93;;;;;;;-7.98;74.38;94616.38;5113241;28;20100;-67
2024/01/14 00:25:31;;;;;;;11.68;7.35;;;;;;;-7.68;73.53;94641.13;5112558;28;20401;-67
2024/01/14 00:27:57;;;;;;;14.27;7.32;;;;;;;-7.89;73.00;94601.91;5095807;28;20031;-67
2024/01/14 00:30:22;;;;;;;10.38;5.57;;;;;;;-7.85;74.02;94617.03;5112466;28;20031;-67
2024/01/14 00:32:48;;;;;;;9.90;5.63;;;;;;;-7.77;74.26;94621.09;5095585;28;20032;-67
2024/01/14 00:35:13;;;;;;;9.68;6.07;;;;;;;-7.67;72.00;94631.88;5095180;28;20024;-67
2024/01/14 00:37:39;;;;;;;15.18;7.10;;;;;;;-7.62;71.24;94634.31;5112614;28;20016;-67
2024/01/14 00:40:10;;;;;;;29.95;15.60;;;;;;;-7.68;72.69;94625.16;5112396;28;20058;-67
2024/01/14 00:42:35;;;;;;;29.52;13.82;;;;;;;-7.96;73.79;94615.50;5112338;28;20024;-67
2024/01/14 00:45:01;;;;;;;16.05;7.65;;;;;;;-7.69;73.18;94623.47;5095328;28;20390;-67
2024/01/14 00:47:30;;;;;;;14.40;6.70;;;;;;;-7.72;71.41;94601.66;5094907;28;20024;-67
2024/01/14 00:49:56;;;;;;;11.10;6.63;;;;;;;-8.24;73.18;94620.09;5112031;28;20032;-67
2024/01/14 00:52:21;;;;;;;11.68;6.13;;;;;;;-8.13;72.59;94619.94;5112238;28;20413;-68
2024/01/14 00:54:47;;;;;;;13.73;6.10;;;;;;;-8.22;72.22;94623.41;5113356;28;20023;-67
2024/01/14 00:57:13;;;;;;;10.10;5.53;;;;;;;-8.14;72.43;94621.63;5112033;28;20023;-67
2024/01/14 00:59:38;;;;;;;11.85;6.38;;;;;;;-8.07;72.22;94616.50;5112136;28;20477;-67
2024/01/14 01:02:03;;;;;;;11.73;5.97;;;;;;;-8.17;72.30;94606.53;5095026;28;20028;-67
2024/01/14 01:04:29;;;;;;;9.60;6.22;;;;;;;-8.40;71.87;94553.97;5112076;28;20069;-67
2024/01/14 01:06:54;;;;;;;8.93;5.32;;;;;;;-8.11;72.76;94603.94;5113586;28;20413;-67
2024/01/14 01:09:20;;;;;;;10.02;4.88;;;;;;;-8.00;71.53;94613.03;5111420;28;20039;-67
2024/01/14 01:11:45;;;;;;;8.85;5.93;;;;;;;-8.14;72.12;94616.56;5112671;28;20081;-67
2024/01/14 01:14:11;;;;;;;12.45;6.53;;;;;;;-8.15;72.24;94604.00;5113087;28;20027;-68
2024/01/14 01:16:36;;;;;;;14.20;6.57;;;;;;;-8.25;72.78;94593.19;5111930;28;20036;-68
2024/01/14 01:19:02;;;;;;;12.95;6.25;;;;;;;-8.04;72.61;94597.13;5112974;28;20020;-68
2024/01/14 01:21:27;;;;;;;11.57;5.90;;;;;;;-8.01;72.17;94591.19;5111901;28;20320;-68
2024/01/14 01:23:52;;;;;;;11.70;5.28;;;;;;;-8.12;72.63;94584.63;5112874;28;20027;-67
2024/01/14 01:26:18;;;;;;;9.27;5.65;;;;;;;-8.09;72.67;94584.56;5112108;28;20098;-67
2024/01/14 01:28:43;;;;;;;8.38;5.82;;;;;;;-8.20;72.68;94572.97;5111509;28;20508;-67
2024/01/14 01:31:09;;;;;;;9.20;4.95;;;;;;;-8.23;71.93;94586.47;5077392;28;20101;-67
2024/01/14 01:33:34;;;;;;;9.38;5.07;;;;;;;-8.16;72.65;94579.63;5094386;28;20073;-67
2024/01/14 01:35:59;;;;;;;6.78;4.43;;;;;;;-8.09;72.42;94571.13;5112298;28;20047;-67
2024/01/14 01:38:25;;;;;;;10.38;5.93;;;;;;;-8.33;73.01;94570.66;5111351;28;20050;-67
2024/01/14 01:40:50;;;;;;;11.45;4.60;;;;;;;-8.27;73.48;94561.31;5110134;28;20035;-67
2024/01/14 01:43:16;;;;;;;9.57;4.65;;;;;;;-8.38;73.48;94564.00;5111018;28;20023;-68
2024/01/14 01:45:42;;;;;;;10.02;5.55;;;;;;;-8.53;73.89;94564.22;5112391;28;20097;-68
2024/01/14 01:48:07;;;;;;;12.25;5.53;;;;;;;-8.20;72.92;94553.66;5111035;28;20172;-68
2024/01/14 01:50:33;;;;;;;8.30;4.53;;;;;;;-8.20;72.33;94540.22;5112249;28;20047;-68
2024/01/14 01:52:59;;;;;;;9.88;5.50;;;;;;;-8.39;71.08;94509.44;5094424;28;20390;-68
2024/01/14 01:55:24;;;;;;;10.65;5.57;;;;;;;-8.25;71.56;94552.03;5110989;28;20027;-67
2024/01/14 01:57:50;;;;;;;8.27;4.90;;;;;;;-8.51;72.01;94560.84;5111050;28;20028;-67
2024/01/14 02:00:15;;;;;;;8.80;5.45;;;;;;;-8.57;72.36;94556.72;5110318;28;20028;-67
2024/01/14 02:02:42;;;;;;;9.93;4.28;;;;;;;-8.69;72.95;94534.22;5109694;28;20084;-67
2024/01/14 02:05:08;;;;;;;9.48;5.13;;;;;;;-8.81;73.72;94544.44;5093841;28;20027;-68
2024/01/14 02:07:33;;;;;;;14.43;6.20;;;;;;;-8.59;73.43;94543.31;5093913;28;20115;-68
2024/01/14 02:09:59;;;;;;;8.43;6.35;;;;;;;-8.75;74.05;94546.03;5092331;28;20481;-68
2024/01/14 02:12:25;;;;;;;10.43;5.60;;;;;;;-8.47;73.37;94531.38;5076243;28;20035;-68
2024/01/14 02:14:50;;;;;;;8.80;4.55;;;;;;;-8.35;72.41;94548.84;5092939;28;20028;-67
2024/01/14 02:17:15;;;;;;;12.20;6.00;;;;;;;-8.57;72.44;94530.69;5109400;28;20092;-67
2024/01/14 02:19:41;;;;;;;10.07;5.35;;;;;;;-8.52;72.36;94534.00;5093223;28;20028;-68
2024/01/14 02:22:14;;;;;;;7.95;4.45;;;;;;;-8.59;72.54;94517.28;5108695;28;20043;-67
2024/01/14 02:24:40;;;;;;;7.30;4.25;;;;;;;-8.40;72.28;94548.94;5110140;28;20478;-68
2024/01/14 02:27:05;;;;;;;8.75;4.93;;;;;;;-8.28;71.64;94542.84;5093417;28;20026;-68
2024/01/14 02:29:31;;;;;;;10.00;6.03;;;;;;;-8.55;71.96;94529.00;5093458;28;20028;-67
2024/01/14 02:31:56;;;;;;;8.48;5.45;;;;;;;-8.44;72.71;94534.72;5093027;28;20032;-68
2024/01/14 02:34:22;;;;;;;8.32;5.30;;;;;;;-8.49;72.10;94523.03;5110395;28;20034;-68
2024/01/14 02:36:47;;;;;;;10.82;5.30;;;;;;;-8.52;72.59;94540.69;5093220;28;20576;-68
2024/01/14 02:39:16;;;;;;;10.15;5.75;;;;;;;-8.74;72.18;94537.66;5076071;28;20019;-68
2024/01/14 02:41:42;;;;;;;8.35;5.38;;;;;;;-8.83;74.12;94541.09;5111831;28;20032;-67
2024/01/14 02:44:07;;;;;;;9.88;5.85;;;;;;;-8.69;74.64;94546.81;5076381;28;20028;-68
2024/01/14 02:46:32;;;;;;;7.90;5.40;;;;;;;-8.72;73.76;94546.84;5110323;28;20028;-67
2024/01/14 02:48:58;;;;;;;10.20;4.78;;;;;;;-8.81;73.55;94540.22;5111307;28;20024;-67
2024/01/14 02:51:23;;;;;;;8.20;5.03;;;;;;;-8.90;74.15;94531.97;5111283;28;20027;-68
2024/01/14 02:53:49;;;;;;;7.60;4.78;;;;;;;-8.86;74.78;94508.41;5110101;28;20137;-68
2024/01/14 02:56:14;;;;;;;10.82;5.38;;;;;;;-8.73;74.36;94524.19;5110178;28;20413;-67
2024/01/14 02:58:40;;;;;;;8.77;5.30;;;;;;;-8.56;74.07;94518.06;5110139;28;20020;-67
2024/01/14 03:01:05;;;;;;;8.77;5.13;;;;;;;-8.70;74.86;94521.63;5111483;28;20032;-67
2024/01/14 03:03:31;;;;;;;12.02;6.03;;;;;;;-8.57;72.53;94528.19;5110082;28;20440;-68
2024/01/14 03:05:56;;;;;;;7.78;5.43;;;;;;;-8.70;72.72;94524.97;5110601;28;20036;-67
2024/01/14 03:08:22;;;;;;;12.35;6.47;;;;;;;-8.69;73.44;94511.56;5109318;28;20481;-67
2024/01/14 03:10:47;;;;;;;11.38;6.47;;;;;;;-8.58;73.54;94529.88;5092880;28;20039;-67
2024/01/14 03:13:15;;;;;;;10.75;5.78;;;;;;;-8.73;73.01;94517.47;5089469;28;20505;-67
2024/01/14 03:15:43;;;;;;;10.30;5.53;;;;;;;-8.56;73.75;94534.88;5090315;28;20039;-67
2024/01/14 03:18:09;;;;;;;11.30;6.30;;;;;;;-8.68;73.67;94533.34;5109851;28;20112;-68
2024/01/14 03:20:34;;;;;;;11.27;5.80;;;;;;;-8.53;73.32;94516.38;5110072;28;20036;-68
2024/01/14 03:23:00;;;;;;;11.68;5.47;;;;;;;-8.43;73.28;94518.75;5092805;28;20425;-68
2024/01/14 03:25:25;;;;;;;11.98;5.95;;;;;;;-8.29;72.39;94523.53;5109605;28;20032;-67
2024/01/14 03:27:51;;;;;;;10.38;6.00;;;;;;;-8.39;72.13;94514.47;5109811;28;20053;-67
2024/01/14 03:30:16;;;;;;;8.32;4.70;;;;;;;-8.58;72.54;94499.66;5109692;28;20036;-67
2024/01/14 03:32:41;;;;;;;10.85;4.78;;;;;;;-8.51;72.08;94514.66;5109067;27;20066;-67
2024/01/14 03:35:07;;;;;;;13.15;6.28;;;;;;;-8.50;71.47;94518.84;5133389;27;20058;-68
2024/01/14 03:37:32;;;;;;;15.05;7.03;;;;;;;-8.60;71.57;94511.41;5133577;27;20495;-68
2024/01/14 03:39:58;;;;;;;15.00;7.80;;;;;;;-8.82;72.01;94490.72;5105242;28;20040;-67
2024/01/14 03:42:23;;;;;;;12.90;6.45;;;;;;;-8.59;72.13;94508.03;5113304;28;20050;-66
2024/01/14 03:44:52;;;;;;;7.75;4.35;;;;;;;-8.90;72.18;94466.50;5109883;28;20024;-68
2024/01/14 03:47:17;;;;;;;7.60;4.45;;;;;;;-8.54;70.97;94513.03;5095752;28;20481;-68
2024/01/14 03:49:43;;;;;;;7.30;5.00;;;;;;;-8.50;71.06;94523.88;5112567;28;20023;-68
2024/01/14 03:52:08;;;;;;;6.07;3.65;;;;;;;-8.67;70.78;94509.81;5114429;27;20030;-68
2024/01/14 03:54:34;;;;;;;6.95;4.28;;;;;;;-8.68;71.48;94514.91;5112802;28;20081;-68
2024/01/14 03:56:59;;;;;;;6.75;3.83;;;;;;;-8.58;71.20;94518.94;5114165;28;20486;-68
2024/01/14 03:59:25;;;;;;;9.68;4.20;;;;;;;-8.63;71.34;94539.19;5097177;28;20115;-67
2024/01/14 04:01:50;;;;;;;6.25;4.38;;;;;;;-8.59;70.77;94533.22;5112004;28;20035;-67
2024/01/14 04:04:16;;;;;;;6.20;3.88;;;;;;;-8.74;71.16;94540.19;5110752;28;20249;-68
2024/01/14 04:06:42;;;;;;;6.03;3.70;;;;;;;-8.71;71.40;94553.56;5113169;28;20027;-68
2024/01/14 04:09:08;;;;;;;8.93;4.72;;;;;;;-8.73;70.69;94564.50;5095563;28;20107;-68
2024/01/14 04:11:33;;;;;;;10.60;4.75;;;;;;;-8.97;71.32;94545.47;5112931;28;20024;-67
2024/01/14 04:13:59;;;;;;;8.57;4.38;;;;;;;-8.89;71.44;94543.69;5112153;28;20032;-68
2024/01/14 04:16:24;;;;;;;8.80;5.45;;;;;;;-9.12;72.45;94552.38;5110776;28;20036;-69
2024/01/14 04:18:49;;;;;;;9.52;5.25;;;;;;;-9.14;73.56;94554.06;5113635;27;20402;-68
2024/01/14 04:21:24;;;;;;;11.05;4.93;;;;;;;-8.97;73.35;94540.44;5113966;28;20031;-68
2024/01/14 04:23:50;;;;;;;9.45;5.72;;;;;;;-9.08;73.02;94541.44;5095349;28;20469;-68
2024/01/14 04:26:22;;;;;;;10.68;6.57;;;;;;;-9.11;73.69;94538.94;5095355;28;20032;-68
2024/01/14 04:28:48;;;;;;;11.80;6.45;;;;;;;-9.10;73.81;94514.59;5095384;28;20055;-66
2024/01/14 04:31:13;;;;;;;10.18;7.13;;;;;;;-9.09;74.09;94513.75;5112500;28;20059;-66
2024/01/14 04:33:39;;;;;;;13.50;6.75;;;;;;;-9.31;74.79;94466.19;5113175;28;20016;-66
2024/01/14 04:36:04;;;;;;;7.53;4.40;;;;;;;-8.97;75.50;94497.66;5111826;28;20051;-68
2024/01/14 04:38:30;;;;;;;10.52;5.55;;;;;;;-9.06;74.64;94509.50;5113545;28;20026;-68
2024/01/14 04:40:55;;;;;;;18.40;8.25;;;;;;;-9.06;74.72;94503.63;5086727;27;20473;-67
2024/01/14 04:43:21;;;;;;;15.88;7.63;;;;;;;-9.05;75.36;94508.66;5099818;28;20032;-68
2024/01/14 04:45:46;;;;;;;14.45;8.60;;;;;;;-9.25;75.40;94500.50;5104368;28;20043;-68
2024/01/14 04:48:12;;;;;;;15.90;7.80;;;;;;;-9.10;75.56;94496.97;5095023;28;20034;-68
2024/01/14 04:50:39;;;;;;;15.30;7.88;;;;;;;-9.00;75.16;94506.94;5094527;28;20032;-68
2024/01/14 04:53:05;;;;;;;16.92;7.10;;;;;;;-9.23;75.35;94511.38;5111210;28;20509;-67
2024/01/14 04:55:31;;;;;;;10.70;6.45;;;;;;;-9.24;74.69;94502.19;5112785;28;20030;-67
2024/01/14 04:57:56;;;;;;;10.80;5.45;;;;;;;-9.02;73.54;94518.69;5113151;27;20027;-68
2024/01/14 05:00:22;;;;;;;17.10;6.88;;;;;;;-8.97;72.80;94526.16;5113108;28;20028;-67
2024/01/14 05:02:47;;;;;;;13.52;6.70;;;;;;;-9.13;73.13;94512.13;5094273;28;20110;-68
2024/01/14 05:05:13;;;;;;;12.63;6.70;;;;;;;-9.45;74.22;94523.38;5112579;27;20031;-68
2024/01/14 05:07:39;;;;;;;6.93;4.45;;;;;;;-9.17;73.85;94539.00;5112812;28;20024;-68
2024/01/14 05:10:05;;;;;;;6.45;3.40;;;;;;;-9.03;72.61;94538.84;5112516;28;20035;-68
2024/01/14 05:12:30;;;;;;;8.65;3.85;;;;;;;-9.03;72.04;94531.28;5112244;28;20059;-68
2024/01/14 05:14:55;;;;;;;4.90;2.85;;;;;;;-8.94;71.84;94528.66;5112501;28;20040;-68
2024/01/14 05:17:21;;;;;;;7.47;3.95;;;;;;;-8.96;72.29;94529.53;5111107;28;20407;-67
2024/01/14 05:19:46;;;;;;;9.63;4.90;;;;;;;-8.95;72.24;94519.44;5112583;28;20027;-68
2024/01/14 05:22:12;;;;;;;7.07;3.80;;;;;;;-9.02;72.49;94518.69;5101113;28;20039;-68
2024/01/14 05:24:40;;;;;;;5.05;3.15;;;;;;;-8.91;72.40;94513.53;5088925;28;20478;-68
2024/01/14 05:27:06;;;;;;;7.38;3.65;;;;;;;-9.01;72.86;94517.81;5114673;27;20107;-68
2024/01/14 05:29:31;;;;;;;9.38;5.55;;;;;;;-9.17;75.10;94511.31;5106887;28;20032;-67
2024/01/14 05:31:57;;;;;;;7.72;5.05;;;;;;;-9.09;75.89;94516.25;5100467;27;20051;-67
2024/01/14 05:34:22;;;;;;;6.07;3.35;;;;;;;-8.89;75.80;94516.00;5072425;28;20047;-67
2024/01/14 05:36:48;;;;;;;7.20;4.25;;;;;;;-9.04;73.68;94510.31;5099408;27;20587;-67
2024/01/14 05:39:13;;;;;;;7.75;4.30;;;;;;;-9.20;75.35;94513.03;5105211;28;20046;-68
2024/01/14 05:41:39;;;;;;;5.70;3.42;;;;;;;-8.96;75.03;94509.41;5090753;28;20040;-68
2024/01/14 05:44:04;;;;;;;6.45;4.20;;;;;;;-9.03;74.46;94517.00;5102448;27;20028;-68
2024/01/14 05:46:30;;;;;;;8.82;4.40;;;;;;;-9.07;74.22;94501.97;5085120;28;20474;-68
2024/01/14 05:48:55;;;;;;;17.10;6.55;;;;;;;-8.83;73.80;94515.91;5102748;28;20054;-68
2024/01/14 05:51:21;;;;;;;13.82;6.78;;;;;;;-9.03;74.38;94517.00;5107816;28;20051;-68
2024/01/14 05:53:46;;;;;;;7.85;4.20;;;;;;;-8.85;73.43;94515.13;5094872;28;20032;-68
2024/01/14 05:56:12;;;;;;;5.32;4.25;;;;;;;-8.79;72.33;94513.34;5100464;27;20101;-67
2024/01/14 05:58:39;;;;;;;6.03;3.75;;;;;;;-8.79;71.87;94507.50;5081732;28;20486;-68
2024/01/14 06:01:04;;;;;;;12.88;6.95;;;;;;;-9.02;72.77;94520.38;5097098;28;20050;-68
2024/01/14 06:03:30;;;;;;;14.52;8.75;;;;;;;-9.05;73.71;94521.25;5075544;28;20031;-67
2024/01/14 06:05:55;;;;;;;19.67;8.65;;;;;;;-9.10;73.18;94479.38;5109199;27;20035;-68
2024/01/14 06:08:20;;;;;;;12.90;6.93;;;;;;;-8.66;72.74;94516.56;5120653;27;20026;-67
2024/01/14 06:10:46;;;;;;;13.38;6.20;;;;;;;-8.59;72.18;94523.16;5108621;27;20403;-68
2024/01/14 06:13:11;;;;;;;11.95;6.43;;;;;;;-8.70;71.99;94512.38;5094748;28;20020;-67
2024/01/14 06:15:37;;;;;;;11.30;6.10;;;;;;;-8.77;72.92;94500.75;5107721;28;20027;-68
2024/01/14 06:18:02;;;;;;;18.00;7.82;;;;;;;-8.67;72.82;94496.41;5073675;28;20039;-68
2024/01/14 06:20:28;;;;;;;19.35;10.48;;;;;;;-8.68;72.65;94500.63;5091327;28;20044;-68
2024/01/14 06:22:53;;;;;;;21.02;10.43;;;;;;;-8.64;72.69;94484.59;5090818;28;20020;-67
2024/01/14 06:25:19;;;;;;;11.63;6.13;;;;;;;-8.57;72.73;94503.81;5111289;28;20023;-67
2024/01/14 06:27:45;;;;;;;12.60;5.55;;;;;;;-8.53;72.83;94501.25;5089824;28;20035;-69
2024/01/14 06:30:11;;;;;;;15.20;6.80;;;;;;;-8.40;71.86;94497.69;5114018;27;20039;-67
2024/01/14 06:32:37;;;;;;;18.15;8.95;;;;;;;-8.50;71.94;94503.72;5091427;28;20089;-67
2024/01/14 06:35:02;;;;;;;29.65;9.80;;;;;;;-8.47;72.97;94514.59;5124720;27;20039;-67
2024/01/14 06:37:28;;;;;;;16.05;6.00;;;;;;;-8.55;73.75;94509.69;5121677;27;20485;-68
2024/01/14 06:39:53;;;;;;;29.98;10.18;;;;;;;-8.57;73.34;94500.47;5102396;28;20032;-67
2024/01/14 06:42:19;;;;;;;25.50;9.32;;;;;;;-8.72;74.25;94511.56;5109329;28;20081;-67
2024/01/14 06:44:44;;;;;;;26.83;8.43;;;;;;;-8.51;74.54;94505.41;5108914;28;20016;-68
2024/01/14 06:47:09;;;;;;;20.83;10.07;;;;;;;-8.31;73.57;94500.03;5108994;28;20035;-67
2024/01/14 06:49:35;;;;;;;21.58;10.68;;;;;;;-8.21;73.83;94491.50;5107598;28;20617;-67
2024/01/14 06:52:00;;;;;;;22.40;11.00;;;;;;;-8.09;73.93;94493.81;5110154;27;20039;-66
2024/01/14 06:54:26;;;;;;;13.95;8.35;;;;;;;-8.12;73.75;94466.13;5085583;28;20032;-66
2024/01/14 06:56:51;;;;;;;16.98;8.13;;;;;;;-8.28;73.73;94442.03;5122396;27;20035;-67
2024/01/14 06:59:23;;;;;;;13.15;6.75;;;;;;;-8.04;74.39;94481.13;5112191;27;20055;-67
2024/01/14 07:01:49;;;;;;;12.60;6.47;;;;;;;-7.79;73.34;94494.16;5094612;28;20031;-67
2024/01/14 07:04:14;;;;;;;11.23;6.50;;;;;;;-7.67;73.23;94485.53;5111047;28;20016;-67
2024/01/14 07:06:40;;;;;;;13.63;7.05;;;;;;;-7.64;73.47;94483.78;5090564;28;20054;-67
2024/01/14 07:09:08;;;;;;;12.98;7.70;;;;;;;-7.56;73.75;94480.31;5069324;28;20494;-67
2024/01/14 07:11:33;;;;;;;9.80;5.90;;;;;;;-7.59;73.95;94483.72;5110259;28;20035;-67
2024/01/14 07:13:59;;;;;;;9.77;6.00;;;;;;;-7.79;75.13;94486.59;5092204;28;20024;-67
2024/01/14 07:16:24;;;;;;;14.43;7.47;;;;;;;-7.62;74.02;94482.94;5123105;27;20080;-67
2024/01/14 07:18:49;;;;;;;21.90;12.77;;;;;;;-7.86;74.88;94449.72;5110038;28;20416;-67
2024/01/14 07:21:15;;;;;;;15.20;8.57;;;;;;;-7.59;75.20;94477.84;5115526;27;20513;-66
2024/01/14 07:23:40;;;;;;;10.85;6.55;;;;;;;-7.34;74.78;94471.47;5076600;28;20032;-68
2024/01/14 07:26:13;;;;;;;12.18;7.30;;;;;;;-7.49;74.96;94459.16;5101087;28;20028;-67
2024/01/14 07:28:38;;;;;;;21.38;11.93;;;;;;;-7.17;74.03;94475.34;5097221;28;20400;-68
2024/01/14 07:31:04;;;;;;;23.63;12.10;;;;;;;-7.43;74.79;94479.22;5090709;28;20039;-67
2024/01/14 07:33:29;;;;;;;16.13;9.73;;;;;;;-7.20;74.64;94487.16;5109819;28;20023;-66
2024/01/14 07:35:55;;;;;;;69.25;39.75;;;;;;;-6.95;73.91;94486.69;5114647;28;20051;-67
2024/01/14 07:38:20;;;;;;;68.15;38.70;;;;;;;-6.90;74.35;94489.97;5095852;28;20114;-66
2024/01/14 07:40:46;;;;;;;61.88;33.55;;;;;;;-7.05;74.46;94486.06;5113814;27;20036;-66
2024/01/14 07:43:11;;;;;;;56.72;29.08;;;;;;;-6.74;74.71;94485.41;5133523;27;20035;-66
2024/01/14 07:45:37;;;;;;;54.28;28.40;;;;;;;-6.85;74.13;94483.13;5133583;27;20492;-65
2024/01/14 07:48:02;;;;;;;49.63;26.15;;;;;;;-6.57;74.20;94482.53;5111043;28;20036;-70
2024/01/14 07:50:28;;;;;;;39.50;23.58;;;;;;;-6.25;72.99;94493.59;5096651;27;20047;-66
2024/01/14 07:52:53;;;;;;;41.58;24.58;;;;;;;-6.08;72.05;94484.72;5105856;28;20095;-65
2024/01/14 07:55:19;;;;;;;32.45;18.85;;;;;;;-5.77;71.61;94481.44;5115197;27;20019;-65
2024/01/14 07:57:44;;;;;;;37.42;21.52;;;;;;;-5.01;69.06;94460.84;5134551;27;20030;-65
2024/01/14 08:00:10;;;;;;;42.03;22.70;;;;;;;-4.71;67.33;94476.03;5097009;27;20072;-64
2024/01/14 08:02:35;;;;;;;34.92;20.48;;;;;;;-4.55;66.76;94474.72;5104569;27;20405;-66
2024/01/14 08:05:01;;;;;;;36.90;21.75;;;;;;;-5.23;67.89;94473.28;5094126;28;20468;-66
2024/01/14 08:07:26;;;;;;;37.60;19.58;;;;;;;-5.17;67.65;94431.75;5118123;27;20220;-72
2024/01/14 08:09:52;;;;;;;40.45;20.92;;;;;;;-4.73;66.67;94471.03;5123102;27;20035;-65
2024/01/14 08:12:17;;;;;;;35.80;21.48;;;;;;;-4.74;66.95;94471.06;5099287;27;20042;-66
2024/01/14 08:14:42;;;;;;;36.97;20.85;;;;;;;-4.75;66.89;94469.41;5116074;27;20053;-71
2024/01/14 08:17:08;;;;;;;42.65;22.02;;;;;;;-4.82;67.47;94453.56;5116193;27;20062;-65
2024/01/14 08:19:33;;;;;;;41.13;21.88;;;;;;;-4.62;67.81;94452.13;5086274;27;20046;-67
2024/01/14 08:21:59;;;;;;;39.08;20.77;;;;;;;-4.49;67.64;94449.16;5113894;27;20023;-70
2024/01/14 08:24:24;;;;;;;40.25;22.08;;;;;;;-4.43;67.57;94445.63;5112057;28;20030;-65
2024/01/14 08:26:50;;;;;;;47.65;25.15;;;;;;;-4.32;67.30;94452.88;5114135;28;20382;-65
2024/01/14 08:29:16;;;;;;;55.90;29.75;;;;;;;-4.24;67.62;94456.03;5110784;27;20843;-66
2024/01/14 08:31:42;;;;;;;40.15;24.90;;;;;;;-4.18;67.54;94448.25;5106894;28;20060;-65
2024/01/14 08:34:08;;;;;;;45.42;26.73;;;;;;;-4.13;66.99;94443.81;5112510;28;20107;-65
2024/01/14 08:36:34;;;;;;;54.50;24.50;;;;;;;-4.03;66.74;94454.53;5110128;28;20055;-64
2024/01/14 08:39:00;;;;;;;50.28;28.58;;;;;;;-4.50;68.02;94465.25;5097347;28;20032;-64
2024/01/14 08:41:26;;;;;;;49.65;27.42;;;;;;;-4.53;68.08;94470.44;5074706;28;20101;-64
2024/01/14 08:43:51;;;;;;;40.33;21.95;;;;;;;-4.66;68.75;94469.13;5112659;28;20034;-64
2024/01/14 08:46:17;;;;;;;35.47;20.27;;;;;;;-4.66;68.94;94469.13;5112573;27;20031;-66
2024/01/14 08:48:43;;;;;;;35.90;18.35;;;;;;;-4.61;68.40;94469.81;5094207;28;20023;-63
2024/01/14 08:51:09;;;;;;;33.35;18.55;;;;;;;-4.27;67.89;94461.19;5086874;28;20039;-64
2024/01/14 08:53:35;;;;;;;38.35;16.08;;;;;;;-4.11;67.07;94442.06;5129026;27;20079;-67
2024/01/14 08:56:00;;;;;;;32.20;19.80;;;;;;;-3.97;66.94;94464.47;5115667;27;20036;-64
2024/01/14 08:58:26;;;;;;;38.05;17.63;;;;;;;-4.31;66.86;94444.41;5088035;28;20028;-64
2024/01/14 09:00:52;;;;;;;38.78;19.17;;;;;;;-3.89;66.13;94454.09;5087163;28;20570;-66
2024/01/14 09:03:17;;;;;;;31.10;15.50;;;;;;;-3.90;65.20;94438.03;5111182;27;20038;-63
2024/01/14 09:05:43;;;;;;;35.97;18.55;;;;;;;-3.92;65.20;94461.78;5128097;27;20030;-66
2024/01/14 09:08:09;;;;;;;30.38;15.02;;;;;;;-4.08;65.39;94449.59;5070867;28;20118;-64
2024/01/14 09:10:34;;;;;;;37.17;19.73;;;;;;;-3.92;65.48;94449.94;5107759;28;20042;-64
2024/01/14 09:12:59;;;;;;;27.35;13.77;;;;;;;-3.97;65.07;94448.44;5107958;27;20020;-66
2024/01/14 09:15:25;;;;;;;29.70;13.95;;;;;;;-3.71;64.24;94440.75;5108313;28;20055;-63
2024/01/14 09:17:51;;;;;;;42.10;23.15;;;;;;;-3.98;65.44;94452.69;5112548;27;20489;-64
2024/01/14 09:20:17;;;;;;;37.92;17.85;;;;;;;-3.93;65.49;94455.03;5091307;28;20036;-64
2024/01/14 09:22:42;;;;;;;35.85;16.38;;;;;;;-3.91;65.00;94451.59;5115563;27;20030;-64
2024/01/14 09:25:08;;;;;;;37.28;18.30;;;;;;;-3.89;65.74;94449.84;5131752;27;20412;-64
2024/01/14 09:27:34;;;;;;;29.63;14.48;;;;;;;-3.83;65.85;94444.53;5122542;27;20028;-63
2024/01/14 09:30:00;;;;;;;35.03;17.30;;;;;;;-3.94;65.87;94407.72;5111341;28;20032;-66
2024/01/14 09:32:26;;;;;;;27.45;14.52;;;;;;;-3.98;65.56;94396.84;5105031;27;20019;-65
2024/01/14 09:34:52;;;;;;;28.20;14.15;;;;;;;-3.55;65.05;94436.00;5101170;28;20024;-64
2024/01/14 09:37:17;;;;;;;29.55;14.77;;;;;;;-3.46;65.54;94435.69;5104807;28;20056;-64
2024/01/14 09:39:42;;;;;;;35.83;16.40;;;;;;;-3.40;65.54;94432.94;5101386;28;20031;-64
2024/01/14 09:42:27;;;;;;;37.28;17.52;;;;;;;-3.21;64.97;94425.50;5127521;27;20026;-64
2024/01/14 09:45:01;;;;;;;31.77;15.27;;;;;;;-3.06;64.46;94401.25;5132059;27;20113;-65
2024/01/14 09:47:26;;;;;;;37.72;17.10;;;;;;;-2.90;63.74;94419.28;5115573;27;20054;-65
2024/01/14 09:49:53;;;;;;;38.42;17.90;;;;;;;-2.95;63.64;94405.94;5129198;27;20477;-63
2024/01/14 09:52:18;;;;;;;35.45;18.00;;;;;;;-2.76;63.21;94414.56;5097508;27;20046;-66
2024/01/14 09:54:44;;;;;;;39.53;21.55;;;;;;;-2.46;62.57;94409.16;5114496;27;20030;-64
2024/01/14 09:57:11;;;;;;;36.40;16.77;;;;;;;-2.63;62.35;94414.91;5131594;27;20023;-64
2024/01/14 09:59:36;;;;;;;28.25;14.82;;;;;;;-2.62;61.81;94411.50;5101148;28;20034;-65
2024/01/14 10:02:01;;;;;;;29.35;13.57;;;;;;;-2.56;60.84;94401.06;5084293;28;20032;-65
2024/01/14 10:04:27;;;;;;;29.17;13.35;;;;;;;-2.46;60.58;94409.16;5062542;28;20043;-65
2024/01/14 10:06:52;;;;;;;33.30;16.48;;;;;;;-2.36;60.08;94402.84;5095819;28;20023;-64
2024/01/14 10:09:18;;;;;;;32.95;16.02;;;;;;;-2.18;59.35;94396.19;5103514;27;20020;-64
2024/01/14 10:11:43;;;;;;;36.33;15.35;;;;;;;-2.49;59.89;94376.22;5102930;28;20027;-63
2024/01/14 10:14:10;;;;;;;33.30;15.07;;;;;;;-2.33;59.61;94390.00;5086232;28;20089;-64
2024/01/14 10:16:38;;;;;;;27.02;13.35;;;;;;;-2.23;58.25;94389.63;5079258;28;20083;-64
2024/01/14 10:19:04;;;;;;;20.75;10.48;;;;;;;-2.14;58.00;94389.28;5111770;28;20029;-65
2024/01/14 10:21:30;;;;;;;18.17;10.10;;;;;;;-2.17;58.12;94384.28;5109089;28;20059;-64
2024/01/14 10:23:56;;;;;;;20.88;10.20;;;;;;;-2.03;57.61;94374.41;5104892;28;20043;-65
2024/01/14 10:26:22;;;;;;;23.70;11.00;;;;;;;-2.02;57.57;94373.50;5094208;28;20680;-64
2024/01/14 10:28:48;;;;;;;21.60;9.80;;;;;;;-1.90;56.64;94372.97;5100165;28;20114;-63
2024/01/14 10:31:13;;;;;;;28.80;13.95;;;;;;;-1.98;57.73;94364.81;5106102;28;20047;-65
2024/01/14 10:33:39;;;;;;;18.77;10.80;;;;;;;-1.85;57.32;94367.69;5103164;28;20027;-64
2024/01/14 10:36:08;;;;;;;23.65;10.15;;;;;;;-2.00;56.48;94353.06;5122871;27;20055;-64
2024/01/14 10:38:34;;;;;;;24.63;12.18;;;;;;;-2.00;57.06;94355.63;5130574;27;20027;-65
2024/01/14 10:41:00;;;;;;;21.48;11.30;;;;;;;-2.05;57.59;94359.16;5103009;28;20429;-65
2024/01/14 10:43:26;;;;;;;24.17;11.63;;;;;;;-1.97;57.26;94355.50;5088548;28;20019;-66
2024/01/14 10:45:52;;;;;;;31.85;14.45;;;;;;;-1.96;58.24;94332.50;5130347;27;20031;-65
2024/01/14 10:48:27;;;;;;;46.17;18.90;;;;;;;-1.82;57.61;94327.66;5112353;27;20506;-65
2024/01/14 10:50:54;;;;;;;47.17;17.13;;;;;;;-1.74;57.45;94317.13;5112229;27;20050;-65
2024/01/14 10:53:24;;;;;;;26.77;11.68;;;;;;;-1.65;57.35;94310.81;5109360;27;20050;-65
2024/01/14 10:55:56;;;;;;;27.02;11.38;;;;;;;-1.44;56.88;94307.34;5128623;27;20045;-65
2024/01/14 10:58:26;;;;;;;22.90;11.65;;;;;;;-1.51;57.46;94320.41;5128767;27;20027;-65
2024/01/14 11:00:52;;;;;;;26.23;12.88;;;;;;;-1.60;58.36;94309.72;5128314;27;20039;-65
2024/01/14 11:03:17;;;;;;;26.45;14.32;;;;;;;-1.33;58.36;94311.97;5126113;28;20030;-65
2024/01/14 11:05:43;;;;;;;21.58;11.40;;;;;;;-1.42;58.27;94290.28;5094338;28;20464;-65
2024/01/14 11:08:09;;;;;;;25.77;11.73;;;;;;;-1.13;57.57;94316.97;5107614;28;20118;-65
2024/01/14 11:10:34;;;;;;;31.45;15.80;;;;;;;-1.29;58.60;94307.56;5096609;28;20064;-65
2024/01/14 11:13:22;;;;;;;29.38;14.63;;;;;;;-1.27;58.28;94293.03;5099655;28;20410;-64
2024/01/14 11:16:10;;;;;;;27.23;12.55;;;;;;;-1.44;58.49;94284.41;5099866;28;20042;-65
2024/01/14 11:18:39;;;;;;;22.65;12.32;;;;;;;-1.52;58.69;94286.47;5091378;28;20026;-64